Time;durP1;ratioP1;P1;durP2;ratioP2;P2;SDS_P1;SDS_P2;PMS_P1;PMS_P2;Temp;Humidity;BMP_temperature;BMP_pressure;BME280_temperature;BME280_humidity;BME280_pressure;Samples;Min_cycle;Max_cycle;Signal;HPM_P1;HPM_P2
2023/04/01 00:00:09;;;;;;;;;;;;;;;9.41;95.15;99236.59;4123623;28;20029;-66
2023/04/01 00:02:14;;;;;;;;;;;;;;;9.38;95.50;99229.75;4122801;28;20016;-66
2023/04/01 00:04:16;;;;;;;;;;;;;;;9.36;95.34;99227.25;4128984;28;20027;-66
2023/04/01 00:06:20;;;;;;;;;;;;;;;9.38;95.75;99229.75;4123816;28;20701;-66
2023/04/01 00:08:22;;;;;;;;;;;;;;;9.38;95.69;99237.84;4122756;28;20021;-66
2023/04/01 00:10:24;;;;;;;;;;;;;;;9.39;95.84;99228.72;4123487;28;20379;-66
2023/04/01 00:12:26;;;;;;;;;;;;;;;9.41;95.66;99236.59;4122223;28;20018;-66
2023/04/01 00:14:28;;;;;;;;;;;;;;;9.41;95.61;99236.59;4121884;28;20029;-66
2023/04/01 00:16:30;;;;;;;;;;;;;;;9.40;95.54;99229.53;4122579;28;20060;-67
2023/04/01 00:18:32;;;;;;;;;;;;;;;9.38;95.69;99235.97;4122904;28;20020;-66
2023/04/01 00:20:34;;;;;;;;;;;;;;;9.37;95.54;99231.63;4122958;28;20060;-66
2023/04/01 00:22:38;;;;;;;;;;;;;;;9.38;95.58;99235.13;4122218;28;20013;-66
2023/04/01 00:24:39;;;;;;;;;;;;;;;9.36;95.56;99229.94;4122970;28;20025;-66
2023/04/01 00:26:43;;;;;;;;;;;;;;;9.36;95.92;99231.81;4122076;28;20013;-66
2023/04/01 00:28:45;;;;;;;;;;;;;;;9.37;96.04;99233.47;4128705;28;20009;-66
2023/04/01 00:30:47;;;;;;;;;;;;;;;9.35;95.79;99230.97;4122297;28;20013;-66
2023/04/01 00:32:52;;;;;;;;;;;;;;;9.34;95.92;99233.88;4122162;28;20012;-66
2023/04/01 00:34:54;;;;;;;;;;;;;;;9.36;96.06;99235.34;4119870;28;20016;-66
2023/04/01 00:36:56;;;;;;;;;;;;;;;9.37;95.96;99228.94;4137362;28;20478;-66
2023/04/01 00:39:00;;;;;;;;;;;;;;;9.38;96.06;99227.06;4128689;28;20024;-66
2023/04/01 00:41:02;;;;;;;;;;;;;;;9.38;95.91;99237.84;4122959;28;20017;-66
2023/04/01 00:43:04;;;;;;;;;;;;;;;9.35;96.02;99227.47;4121684;28;20052;-66
2023/04/01 00:45:21;;;;;;;;;;;;;;;9.34;96.10;99234.72;4122211;28;20024;-66
2023/04/01 00:47:23;;;;;;;;;;;;;;;9.35;95.82;99232.84;4121833;28;20012;-66
2023/04/01 00:49:26;;;;;;;;;;;;;;;9.35;95.86;99232.84;4128796;28;20032;-66
2023/04/01 00:51:28;;;;;;;;;;;;;;;9.36;95.81;99237.22;4127756;28;20029;-66
2023/04/01 00:53:31;;;;;;;;;;;;;;;9.36;95.91;99238.03;4122291;28;20022;-66
2023/04/01 00:55:35;;;;;;;;;;;;;;;9.38;96.00;99232.44;4121513;28;20036;-66
2023/04/01 00:57:37;;;;;;;;;;;;;;;9.41;95.94;99239.28;4127449;28;20020;-66
2023/04/01 00:59:40;;;;;;;;;;;;;;;9.41;96.18;99237.41;4120766;28;20119;-66
2023/04/01 01:01:42;;;;;;;;;;;;;;;9.43;96.16;99238.03;4120402;28;20034;-66
2023/04/01 01:03:44;;;;;;;;;;;;;;;9.45;96.00;99235.97;4135940;28;20028;-66
2023/04/01 01:05:51;;;;;;;;;;;;;;;9.48;96.16;99237.41;4136832;28;20033;-66
2023/04/01 01:07:54;;;;;;;;;;;;;;;9.48;95.86;99234.72;4121044;28;20009;-66
2023/04/01 01:09:57;;;;;;;;;;;;;;;9.46;95.79;99229.53;4137085;28;20031;-66
2023/04/01 01:12:03;;;;;;;;;;;;;;;9.45;95.96;99227.91;4119997;28;20012;-66
2023/04/01 01:14:07;;;;;;;;;;;;;;;9.44;96.02;99233.50;4136906;28;20016;-66
2023/04/01 01:16:10;;;;;;;;;;;;;;;9.40;96.00;99235.75;4136914;28;20411;-66
2023/04/01 01:18:14;;;;;;;;;;;;;;;9.36;95.90;99229.13;4136237;28;20012;-66
2023/04/01 01:20:31;;;;;;;;;;;;;;;9.36;96.37;99238.03;4123564;28;20044;-66
2023/04/01 01:22:37;;;;;;;;;;;;;;;9.35;96.41;99232.84;4121474;28;20029;-66
2023/04/01 01:24:44;;;;;;;;;;;;;;;9.35;96.71;99236.38;4122752;28;20020;-66
2023/04/01 01:27:02;;;;;;;;;;;;;;;9.35;96.78;99236.38;4122136;28;20008;-65
2023/04/01 01:29:06;;;;;;;;;;;;;;;9.37;96.89;99233.47;4122541;28;20016;-65
2023/04/01 01:31:10;;;;;;;;;;;;;;;9.38;96.89;99232.44;4128662;28;20017;-65
2023/04/01 01:33:14;;;;;;;;;;;;;;;9.37;97.15;99234.31;4120877;28;20005;-65
2023/04/01 01:35:20;;;;;;;;;;;;;;;9.38;97.25;99241.34;4119840;28;20056;-65
2023/04/01 01:37:23;;;;;;;;;;;;;;;9.41;97.46;99239.28;4133692;28;20016;-65
2023/04/01 01:39:27;;;;;;;;;;;;;;;9.43;97.70;99243.44;4121877;28;20014;-65
2023/04/01 01:41:29;;;;;;;;;;;;;;;9.41;97.40;99225.81;4143408;28;20012;-66
2023/04/01 01:43:33;;;;;;;;;;;;;;;9.47;97.27;99236.59;4121680;28;20020;-66
2023/04/01 01:45:38;;;;;;;;;;;;;;;9.49;97.71;99236.38;4121688;28;20009;-67
2023/04/01 01:47:41;;;;;;;;;;;;;;;9.48;97.48;99235.56;4127226;28;20041;-65
2023/04/01 01:49:43;;;;;;;;;;;;;;;9.49;97.14;99236.38;4127469;28;20103;-66
2023/04/01 01:51:47;;;;;;;;;;;;;;;9.49;97.47;99239.91;4121533;28;20005;-66
2023/04/01 01:53:50;;;;;;;;;;;;;;;9.49;97.41;99244.47;4142161;28;20032;-66
2023/04/01 01:55:54;;;;;;;;;;;;;;;9.48;97.33;99235.56;4137166;28;20025;-66
2023/04/01 01:57:56;;;;;;;;;;;;;;;9.50;97.75;99246.97;4124833;28;20044;-66
2023/04/01 01:59:59;;;;;;;;;;;;;;;9.54;97.52;99250.06;4123696;28;20021;-66
2023/04/01 02:02:07;;;;;;;;;;;;;;;9.52;97.42;99250.28;4129454;28;20024;-66
2023/04/01 02:04:09;;;;;;;;;;;;;;;9.53;97.67;99243.84;4146560;28;20016;-66
2023/04/01 02:06:12;;;;;;;;;;;;;;;9.54;97.45;99242.84;4125535;28;20041;-66
2023/04/01 02:08:16;;;;;;;;;;;;;;;9.55;97.74;99243.66;4130464;28;20394;-66
2023/04/01 02:10:18;;;;;;;;;;;;;;;9.56;97.43;99245.28;4125082;28;20017;-66
2023/04/01 02:12:20;;;;;;;;;;;;;;;9.56;97.68;99250.69;4122819;28;20041;-66
2023/04/01 02:14:23;;;;;;;;;;;;;;;9.58;97.71;99248.63;4139195;28;20025;-66
2023/04/01 02:16:26;;;;;;;;;;;;;;;9.59;97.63;99246.75;4123024;28;20012;-66
2023/04/01 02:18:30;;;;;;;;;;;;;;;9.61;97.39;99242.81;4123270;28;20032;-66
2023/04/01 02:20:31;;;;;;;;;;;;;;;9.63;97.54;99243.44;4125082;28;20025;-66
2023/04/01 02:22:35;;;;;;;;;;;;;;;9.66;97.13;99247.59;4129555;28;20016;-66
2023/04/01 02:24:38;;;;;;;;;;;;;;;9.64;97.01;99252.34;4124478;28;20016;-66
2023/04/01 02:26:40;;;;;;;;;;;;;;;9.65;96.60;99249.44;4146514;28;20009;-66
2023/04/01 02:28:42;;;;;;;;;;;;;;;9.63;96.57;99248.81;4130901;28;20028;-66
2023/04/01 02:30:45;;;;;;;;;;;;;;;9.62;96.41;99249.03;4130208;28;20016;-66
2023/04/01 02:32:47;;;;;;;;;;;;;;;9.62;96.39;99254.44;4129783;28;20370;-66
2023/04/01 02:34:49;;;;;;;;;;;;;;;9.63;96.56;99245.31;4124394;28;20014;-66
2023/04/01 02:36:51;;;;;;;;;;;;;;;9.64;96.91;99247.81;4124450;28;20021;-66
2023/04/01 02:38:54;;;;;;;;;;;;;;;9.65;96.59;99254.81;4123018;28;20036;-66
2023/04/01 02:41:00;;;;;;;;;;;;;;;9.65;96.71;99252.13;4124614;28;20013;-66
2023/04/01 02:43:02;;;;;;;;;;;;;;;9.65;96.53;99262.09;4129069;28;20020;-66
2023/04/01 02:45:05;;;;;;;;;;;;;;;9.66;96.63;99259.19;4130016;28;19965;-66
2023/04/01 02:47:07;;;;;;;;;;;;;;;9.64;96.42;99255.88;4138142;28;20020;-66
2023/04/01 02:49:09;;;;;;;;;;;;;;;9.65;96.36;99259.41;4130104;28;20530;-66
2023/04/01 02:51:11;;;;;;;;;;;;;;;9.66;96.53;99266.47;4124356;28;20017;-66
2023/04/01 02:53:13;;;;;;;;;;;;;;;9.69;96.72;99263.34;4123296;28;20028;-66
2023/04/01 02:55:15;;;;;;;;;;;;;;;9.69;96.36;99277.66;4124121;28;20028;-66
2023/04/01 02:57:18;;;;;;;;;;;;;;;9.68;96.22;99269.78;4121580;28;20029;-66
2023/04/01 02:59:20;;;;;;;;;;;;;;;9.68;96.15;99273.28;4122405;28;20053;-66
2023/04/01 03:01:22;;;;;;;;;;;;;;;9.68;96.57;99265.19;4123248;28;20032;-66
2023/04/01 03:03:24;;;;;;;;;;;;;;;9.57;96.00;99260.44;4123861;28;20021;-66
2023/04/01 03:05:26;;;;;;;;;;;;;;;9.67;95.99;99271.66;4123903;28;20841;-66
2023/04/01 03:07:29;;;;;;;;;;;;;;;9.67;95.94;99273.50;4145027;28;20017;-66
2023/04/01 03:09:31;;;;;;;;;;;;;;;9.63;95.94;99270.38;4124470;28;20372;-66
2023/04/01 03:11:34;;;;;;;;;;;;;;;9.64;96.30;99272.06;4123975;28;19937;-67
2023/04/01 03:13:47;;;;;;;;;;;;;;;9.66;96.27;99275.38;4121542;28;20013;-67
2023/04/01 03:15:50;;;;;;;;;;;;;;;9.65;96.28;99272.88;4130530;28;20395;-66
2023/04/01 03:17:56;;;;;;;;;;;;;;;9.61;96.27;99269.78;4122538;28;20305;-67
2023/04/01 03:20:02;;;;;;;;;;;;;;;9.60;96.26;99275.38;4122177;28;20029;-66
2023/04/01 03:22:07;;;;;;;;;;;;;;;9.59;96.72;99268.31;4122270;28;19968;-67
2023/04/01 03:24:10;;;;;;;;;;;;;;;9.58;96.57;99278.28;4124424;28;19929;-67
2023/04/01 03:26:12;;;;;;;;;;;;;;;9.58;96.69;99278.28;4124464;28;19945;-67
2023/04/01 03:28:14;;;;;;;;;;;;;;;9.59;96.64;99279.09;4121919;28;20032;-67
2023/04/01 03:30:17;;;;;;;;;;;;;;;9.59;97.00;99279.09;4137416;28;20008;-65
2023/04/01 03:32:27;;;;;;;;;;;;;;;9.60;96.90;99280.78;4136437;28;20017;-67
2023/04/01 03:34:29;;;;;;;;;;;;;;;9.59;96.48;99276.41;4121900;28;20020;-67
2023/04/01 03:36:31;;;;;;;;;;;;;;;9.58;96.48;99280.97;4136727;28;20017;-67
2023/04/01 03:38:33;;;;;;;;;;;;;;;9.58;96.37;99280.97;4123302;28;20426;-67
2023/04/01 03:40:37;;;;;;;;;;;;;;;9.57;96.23;99287.38;4123365;28;20036;-67
2023/04/01 03:42:39;;;;;;;;;;;;;;;9.57;96.49;99284.69;4121478;28;20012;-67
2023/04/01 03:44:41;;;;;;;;;;;;;;;9.56;96.15;99285.72;4144580;28;20024;-67
2023/04/01 03:46:46;;;;;;;;;;;;;;;9.55;96.19;99286.78;4128085;28;20021;-67
2023/04/01 03:48:48;;;;;;;;;;;;;;;9.55;96.46;99292.16;4123117;28;20033;-67
2023/04/01 03:50:50;;;;;;;;;;;;;;;9.56;96.35;99291.09;4145475;28;20448;-67
2023/04/01 03:52:52;;;;;;;;;;;;;;;9.57;96.62;99295.47;4122502;28;20021;-67
2023/04/01 03:54:55;;;;;;;;;;;;;;;9.59;96.77;99295.28;4123149;28;20024;-67
2023/04/01 03:56:57;;;;;;;;;;;;;;;9.57;96.52;99290.09;4122687;28;20489;-67
2023/04/01 03:59:02;;;;;;;;;;;;;;;9.55;96.73;99301.06;4128937;28;20020;-67
2023/04/01 04:01:04;;;;;;;;;;;;;;;9.59;97.10;99295.28;4137959;28;20033;-67
2023/04/01 04:03:09;;;;;;;;;;;;;;;9.59;96.98;99303.34;4135384;28;20008;-66
2023/04/01 04:05:13;;;;;;;;;;;;;;;9.59;96.58;99306.88;4137999;28;20029;-66
2023/04/01 04:07:15;;;;;;;;;;;;;;;9.61;96.91;99306.66;4135449;28;20012;-65
2023/04/01 04:09:38;;;;;;;;;;;;;;;9.63;96.78;99310.00;4145289;28;20016;-66
2023/04/01 04:11:40;;;;;;;;;;;;;;;9.63;96.75;99305.44;4142212;28;20029;-66
2023/04/01 04:13:42;;;;;;;;;;;;;;;9.64;96.45;99309.81;4128947;28;20544;-66
2023/04/01 04:15:45;;;;;;;;;;;;;;;9.66;96.55;99315.00;4129045;28;20028;-67
2023/04/01 04:17:47;;;;;;;;;;;;;;;9.69;96.42;99314.56;4124303;28;20013;-67
2023/04/01 04:19:51;;;;;;;;;;;;;;;9.69;96.25;99314.56;4144712;28;20031;-67
2023/04/01 04:21:54;;;;;;;;;;;;;;;9.70;96.31;99317.06;4127383;28;20021;-67
2023/04/01 04:23:56;;;;;;;;;;;;;;;9.70;96.59;99321.59;4123489;28;20029;-67
2023/04/01 04:25:58;;;;;;;;;;;;;;;9.70;96.50;99322.47;4137223;28;20032;-67
2023/04/01 04:28:02;;;;;;;;;;;;;;;9.70;96.60;99322.47;4122873;28;20022;-66
2023/04/01 04:30:04;;;;;;;;;;;;;;;9.71;96.41;99320.59;4122784;28;20029;-66
2023/04/01 04:32:06;;;;;;;;;;;;;;;9.71;96.08;99325.97;4144376;28;20024;-66
2023/04/01 04:34:08;;;;;;;;;;;;;;;9.70;95.88;99318.91;4129039;28;20045;-66
2023/04/01 04:36:13;;;;;;;;;;;;;;;9.67;95.92;99324.72;4154302;28;20016;-66
2023/04/01 04:38:15;;;;;;;;;;;;;;;9.69;95.92;99328.06;4128904;28;20069;-66
2023/04/01 04:40:17;;;;;;;;;;;;;;;9.66;96.05;99326.59;4122093;28;20024;-66
2023/04/01 04:42:19;;;;;;;;;;;;;;;9.65;96.04;99321.41;4120595;28;20036;-66
2023/04/01 04:44:21;;;;;;;;;;;;;;;9.62;96.12;99335.28;4128390;28;20500;-66
2023/04/01 04:46:23;;;;;;;;;;;;;;;9.61;96.04;99334.47;4122234;28;20017;-66
2023/04/01 04:48:31;;;;;;;;;;;;;;;9.61;96.05;99331.78;4137432;28;20064;-67
2023/04/01 04:50:33;;;;;;;;;;;;;;;9.62;96.15;99329.91;4122631;28;20365;-67
2023/04/01 04:52:36;;;;;;;;;;;;;;;9.62;96.41;99333.41;4128086;28;20020;-67
2023/04/01 04:54:38;;;;;;;;;;;;;;;9.63;96.60;99334.25;4127938;28;20020;-66
2023/04/01 04:56:41;;;;;;;;;;;;;;;9.63;96.42;99334.25;4153282;28;20593;-67
2023/04/01 04:58:44;;;;;;;;;;;;;;;9.62;96.39;99329.91;4154177;28;20025;-67
2023/04/01 05:00:51;;;;;;;;;;;;;;;9.57;96.19;99330.50;4128342;28;20028;-67
2023/04/01 05:02:58;;;;;;;;;;;;;;;9.56;96.48;99342.31;4152724;28;20040;-67
2023/04/01 05:05:00;;;;;;;;;;;;;;;9.55;96.53;99335.28;4121566;28;20020;-67
2023/04/01 05:07:02;;;;;;;;;;;;;;;9.54;96.71;99339.88;4122122;28;20368;-67
2023/04/01 05:09:06;;;;;;;;;;;;;;;9.55;97.06;99338.81;4121333;28;20033;-67
2023/04/01 05:11:09;;;;;;;;;;;;;;;9.56;97.34;99339.63;4122313;28;20068;-67
2023/04/01 05:13:14;;;;;;;;;;;;;;;9.55;97.08;99341.50;4120682;28;20036;-66
2023/04/01 05:15:18;;;;;;;;;;;;;;;9.56;97.16;99345.88;4129073;28;20024;-66
2023/04/01 05:17:20;;;;;;;;;;;;;;;9.54;97.59;99345.25;4120873;28;20017;-66
2023/04/01 05:19:22;;;;;;;;;;;;;;;9.54;97.67;99356.03;4120642;28;20032;-66
2023/04/01 05:21:25;;;;;;;;;;;;;;;9.55;97.61;99359.56;4127135;28;20475;-66
2023/04/01 05:23:29;;;;;;;;;;;;;;;9.53;97.70;99354.34;4128471;28;20024;-66
2023/04/01 05:25:33;;;;;;;;;;;;;;;9.49;97.66;99350.41;4127690;28;20036;-67
2023/04/01 05:27:35;;;;;;;;;;;;;;;9.49;98.25;99345.00;4144891;28;20423;-66
2023/04/01 05:29:40;;;;;;;;;;;;;;;9.50;97.93;99351.25;4144592;28;20005;-66
2023/04/01 05:31:48;;;;;;;;;;;;;;;9.50;98.18;99351.25;4144815;28;20364;-67
2023/04/01 05:33:49;;;;;;;;;;;;;;;9.51;98.08;99353.75;4131467;28;20507;-66
2023/04/01 05:35:52;;;;;;;;;;;;;;;9.52;98.25;99349.19;4140245;28;20032;-66
2023/04/01 05:37:54;;;;;;;;;;;;;;;9.52;98.39;99351.88;4124107;28;20012;-66
2023/04/01 05:39:58;;;;;;;;;;;;;;;9.54;98.69;99352.47;4124379;28;20386;-66
2023/04/01 05:42:01;;;;;;;;;;;;;;;9.55;98.60;99356.84;4130961;28;20363;-66
2023/04/01 05:44:04;;;;;;;;;;;;;;;9.57;98.69;99352.06;4124950;28;20451;-67
2023/04/01 05:46:26;;;;;;;;;;;;;;;9.58;98.54;99361.84;4114077;28;20016;-66
2023/04/01 05:48:48;;;;;;;;;;;;;;;9.61;98.69;99363.28;4119707;28;20025;-66
2023/04/01 05:50:52;;;;;;;;;;;;;;;9.61;98.90;99365.97;4131803;28;20610;-66
2023/04/01 05:52:55;;;;;;;;;;;;;;;9.60;98.79;99367.03;4124294;28;20024;-66
2023/04/01 05:55:00;;;;;;;;;;;;;;;9.61;98.59;99366.81;4124518;28;20029;-66
2023/04/01 05:57:03;;;;;;;;;;;;;;;9.62;98.94;99371.16;4155828;28;20032;-66
2023/04/01 05:59:05;;;;;;;;;;;;;;;9.62;99.01;99375.72;4123830;28;20024;-67
2023/04/01 06:01:08;;;;;;;;;;;;;;;9.62;99.14;99376.53;4146583;28;20158;-66
2023/04/01 06:03:11;;;;;;;;;;;;;;;9.63;99.20;99380.91;4138985;28;20013;-66
2023/04/01 06:05:15;;;;;;;;;;;;;;;9.64;99.13;99376.34;4139366;28;20020;-65
2023/04/01 06:07:18;;;;;;;;;;;;;;;9.65;98.99;99384.22;4155310;28;20020;-65
2023/04/01 06:09:27;;;;;;;;;;;;;;;9.64;98.95;99379.03;4155365;28;20056;-65
2023/04/01 06:11:32;;;;;;;;;;;;;;;9.64;98.81;99385.28;4121893;28;20426;-65
2023/04/01 06:13:41;;;;;;;;;;;;;;;9.63;98.99;99378.22;4154961;28;20471;-66
2023/04/01 06:15:44;;;;;;;;;;;;;;;9.66;99.06;99385.09;4122086;28;20032;-65
2023/04/01 06:17:53;;;;;;;;;;;;;;;9.62;98.81;99387.34;4154183;28;20019;-65
2023/04/01 06:19:58;;;;;;;;;;;;;;;9.63;99.23;99396.28;4122543;28;20021;-65
2023/04/01 06:22:18;;;;;;;;;;;;;;;9.66;99.10;99398.56;4135787;28;20406;-66
2023/04/01 06:24:29;;;;;;;;;;;;;;;9.67;99.25;99395.66;4122466;28;20016;-66
2023/04/01 06:26:31;;;;;;;;;;;;;;;9.67;99.56;99397.50;4123421;28;20021;-67
2023/04/01 06:28:47;;;;;;;;;;;;;;;9.66;99.19;99402.06;4128918;28;20020;-67
2023/04/01 06:30:50;;;;;;;;;;;;;;;9.66;99.24;99404.78;4124005;28;20025;-65
2023/04/01 06:33:02;;;;;;;;;;;;;;;9.67;99.58;99406.44;4129153;28;20027;-65
2023/04/01 06:35:15;;;;;;;;;;;;;;;9.68;99.62;99404.56;4144889;28;20016;-65
2023/04/01 06:37:23;;;;;;;;;;;;;;;9.68;99.58;99407.25;4128942;28;20017;-65
2023/04/01 06:39:28;;;;;;;;;;;;;;;9.67;99.49;99406.44;4129044;28;20648;-64
2023/04/01 06:41:48;;;;;;;;;;;;;;;9.67;99.38;99416.38;4127541;28;20033;-65
2023/04/01 06:43:56;;;;;;;;;;;;;;;9.64;99.04;99406.84;4128582;28;21094;-65
2023/04/01 06:46:26;;;;;;;;;;;;;;;9.67;99.64;99410.97;4121493;28;20029;-65
2023/04/01 06:49:09;;;;;;;;;;;;;;;9.67;99.65;99409.13;4117340;28;20021;-64
2023/04/01 06:51:32;;;;;;;;;;;;;;;9.70;99.83;99410.56;4104930;28;20040;-65
2023/04/01 06:54:10;;;;;;;;;;;;;;;9.69;99.61;99409.75;4122408;28;20008;-66
2023/04/01 06:56:30;;;;;;;;;;;;;;;9.68;99.65;99407.25;4122040;28;20017;-66
2023/04/01 06:58:36;;;;;;;;;;;;;;;9.68;100.00;99416.16;4122950;28;19977;-66
2023/04/01 07:00:40;;;;;;;;;;;;;;;9.72;100.00;99414.75;4136076;28;20417;-66
2023/04/01 07:02:43;;;;;;;;;;;;;;;9.76;100.00;99423.25;4137714;28;20033;-65
2023/04/01 07:04:47;;;;;;;;;;;;;;;9.79;100.00;99422.00;4134881;28;20029;-65
2023/04/01 07:06:51;;;;;;;;;;;;;;;9.81;99.99;99419.94;4137611;28;20024;-65
2023/04/01 07:08:53;;;;;;;;;;;;;;;9.81;99.86;99423.47;4136949;28;20052;-65
2023/04/01 07:10:56;;;;;;;;;;;;;;;9.84;100.00;99424.91;4153341;28;20024;-65
2023/04/01 07:13:19;;;;;;;;;;;;;;;9.87;100.00;99427.22;4137943;28;20021;-66
2023/04/01 07:15:34;;;;;;;;;;;;;;;9.90;100.00;99421.41;4092301;28;1897860;-66
2023/04/01 07:17:40;;;;;;;;;;;;;;;9.91;100.00;99432.00;4143067;28;20016;-66
2023/04/01 07:19:43;;;;;;;;;;;;;;;9.94;99.89;99428.06;4143974;28;20036;-67
2023/04/01 07:21:48;;;;;;;;;;;;;;;9.93;99.87;99429.91;4121276;28;20021;-67
2023/04/01 07:24:00;;;;;;;;;;;;;;;9.95;100.00;99437.78;4137533;28;20016;-67
2023/04/01 07:26:12;;;;;;;;;;;;;;;9.96;100.00;99436.78;4143267;28;20036;-66
2023/04/01 07:28:37;;;;;;;;;;;;;;;9.98;100.00;99442.78;4138499;28;20431;-66
2023/04/01 07:30:59;;;;;;;;;;;;;;;10.01;100.00;99431.59;4139497;28;20036;-67
2023/04/01 07:33:04;;;;;;;;;;;;;;;10.03;100.00;99436.78;4152597;28;20008;-66
2023/04/01 07:35:08;;;;;;;;;;;;;;;10.05;100.00;99440.13;4128497;28;19940;-65
2023/04/01 07:37:11;;;;;;;;;;;;;;;10.08;100.00;99440.53;4119411;28;20012;-67
2023/04/01 07:39:18;;;;;;;;;;;;;;;10.12;100.00;99449.03;4155629;28;20032;-67
2023/04/01 07:41:45;;;;;;;;;;;;;;;10.16;100.00;99438.69;4136259;28;20032;-67
2023/04/01 07:43:53;;;;;;;;;;;;;;;10.20;99.25;99439.91;4144389;28;20028;-69
2023/04/01 07:46:04;;;;;;;;;;;;;;;10.24;98.67;99441.16;4126468;28;20033;-67
2023/04/01 07:48:11;;;;;;;;;;;;;;;10.27;98.18;99438.06;4134965;28;20041;-67
2023/04/01 07:50:16;;;;;;;;;;;;;;;10.30;96.95;99445.75;4150709;28;20431;-65
2023/04/01 07:52:19;;;;;;;;;;;;;;;10.32;96.73;99445.53;4140101;28;20359;-66
2023/04/01 07:54:26;;;;;;;;;;;;;;;10.35;95.76;99445.16;4156826;28;20020;-65
2023/04/01 07:56:29;;;;;;;;;;;;;;;10.37;95.26;99440.38;4157549;28;21506;-67
2023/04/01 07:58:32;;;;;;;;;;;;;;;10.39;94.15;99446.38;4128608;28;20344;-68
2023/04/01 08:00:36;;;;;;;;;;;;;;;10.41;93.79;99442.44;4144359;28;20004;-68
2023/04/01 08:02:54;;;;;;;;;;;;;;;10.43;92.76;99445.75;4141226;28;20020;-67
2023/04/01 08:05:03;;;;;;;;;;;;;;;10.48;92.63;99447.03;4144569;28;20017;-67
2023/04/01 08:07:07;;;;;;;;;;;;;;;10.48;90.91;99442.44;4157472;28;20012;-68
2023/04/01 08:09:13;;;;;;;;;;;;;;;10.50;90.81;99451.19;4144384;28;20028;-67
2023/04/01 08:11:38;;;;;;;;;;;;;;;10.51;90.17;99447.41;4143265;28;20029;-67
2023/04/01 08:14:01;;;;;;;;;;;;;;;10.52;89.42;99453.66;4142633;28;20017;-68
2023/04/01 08:16:24;;;;;;;;;;;;;;;10.52;89.22;99454.50;4142569;28;20021;-69
2023/04/01 08:18:30;;;;;;;;;;;;;;;10.54;88.88;99440.78;4144736;28;20043;-67
2023/04/01 08:20:35;;;;;;;;;;;;;;;10.56;88.97;99449.50;4143650;28;20024;-67
2023/04/01 08:22:39;;;;;;;;;;;;;;;10.57;88.80;99449.28;4126144;28;20012;-67
2023/04/01 08:24:48;;;;;;;;;;;;;;;10.58;88.25;99450.09;4138462;28;20035;-68
2023/04/01 08:26:56;;;;;;;;;;;;;;;10.60;88.82;99456.97;4127583;28;20016;-67
2023/04/01 08:29:00;;;;;;;;;;;;;;;10.61;89.07;99457.78;4143745;28;20114;-65
2023/04/01 08:31:04;;;;;;;;;;;;;;;10.61;88.78;99455.94;4153172;28;19957;-66
2023/04/01 08:33:09;;;;;;;;;;;;;;;10.63;88.55;99453.03;4143670;28;20016;-67
2023/04/01 08:35:16;;;;;;;;;;;;;;;10.63;88.44;99466.53;4144180;28;20443;-66
2023/04/01 08:37:20;;;;;;;;;;;;;;;10.63;88.04;99467.34;4129032;28;20389;-66
2023/04/01 08:39:26;;;;;;;;;;;;;;;10.66;88.10;99466.13;4144488;28;20431;-66
2023/04/01 08:41:35;;;;;;;;;;;;;;;10.69;88.25;99468.41;4120470;28;20024;-66
2023/04/01 08:44:13;;;;;;;;;;;;;;;10.70;88.72;99472.75;4119624;28;20033;-67
2023/04/01 08:46:21;;;;;;;;;;;;;;;10.69;88.79;99471.09;4117331;28;20025;-66
2023/04/01 08:48:33;;;;;;;;;;;;;;;10.69;88.70;99470.25;4139742;28;20016;-67
2023/04/01 08:50:49;;;;;;;;;;;;;;;10.68;88.81;99472.13;4150570;28;20028;-67
2023/04/01 08:53:03;;;;;;;;;;;;;;;10.69;88.69;99467.56;4138028;28;20024;-67
2023/04/01 08:55:21;;;;;;;;;;;;;;;10.69;88.33;99473.81;4142840;28;20447;-67
2023/04/01 08:57:45;;;;;;;;;;;;;;;10.71;89.11;99473.59;4100218;28;20012;-66
2023/04/01 09:00:21;;;;;;;;;;;;;;;10.71;89.04;99484.41;4122426;28;19968;-67
2023/04/01 09:02:55;;;;;;;;;;;;;;;10.69;88.47;99483.75;4132061;28;20458;-67
2023/04/01 09:05:22;;;;;;;;;;;;;;;10.66;89.13;99486.88;4160577;28;20015;-67
2023/04/01 09:07:29;;;;;;;;;;;;;;;10.63;89.13;99491.66;4136172;28;20020;-67
2023/04/01 09:09:56;;;;;;;;;;;;;;;10.61;89.61;99492.91;4153551;28;20497;-67
2023/04/01 09:12:12;;;;;;;;;;;;;;;10.60;90.52;99497.47;4130067;28;20018;-67
2023/04/01 09:14:32;;;;;;;;;;;;;;;10.57;90.64;99506.00;4141507;28;20458;-67
2023/04/01 09:17:13;;;;;;;;;;;;;;;10.56;91.44;99506.19;4152133;28;20024;-66
2023/04/01 09:19:20;;;;;;;;;;;;;;;10.53;91.98;99506.59;4144744;28;20027;-67
2023/04/01 09:21:34;;;;;;;;;;;;;;;10.52;91.86;99513.06;4128198;28;20382;-67
2023/04/01 09:23:40;;;;;;;;;;;;;;;10.50;91.79;99515.13;4135928;28;20033;-67
2023/04/01 09:25:54;;;;;;;;;;;;;;;10.49;92.25;99506.19;4139033;28;20016;-67
2023/04/01 09:27:57;;;;;;;;;;;;;;;10.48;92.58;99512.63;4137420;28;20108;-67
2023/04/01 09:30:30;;;;;;;;;;;;;;;10.47;92.51;99516.38;4136945;28;20020;-67
2023/04/01 09:32:42;;;;;;;;;;;;;;;10.43;92.59;99518.63;4138125;28;20016;-67
2023/04/01 09:34:53;;;;;;;;;;;;;;;10.42;92.59;99518.84;4144766;28;20024;-67
2023/04/01 09:36:59;;;;;;;;;;;;;;;10.35;93.22;99513.44;4152272;28;20106;-68
2023/04/01 09:39:05;;;;;;;;;;;;;;;10.43;93.53;99521.34;4144144;28;20015;-68
2023/04/01 09:41:08;;;;;;;;;;;;;;;10.43;93.42;99524.03;4154073;28;20016;-68
2023/04/01 09:43:35;;;;;;;;;;;;;;;10.38;93.02;99523.84;4119364;28;20248;-68
2023/04/01 09:45:49;;;;;;;;;;;;;;;10.38;93.20;99529.22;4127895;28;20107;-67
2023/04/01 09:47:55;;;;;;;;;;;;;;;10.38;93.46;99533.81;4135527;28;20008;-68
2023/04/01 09:50:06;;;;;;;;;;;;;;;10.37;93.66;99534.84;4144165;28;20012;-68
2023/04/01 09:52:15;;;;;;;;;;;;;;;10.36;93.95;99536.72;4121131;28;20021;-67
2023/04/01 09:54:24;;;;;;;;;;;;;;;10.36;93.80;99534.00;4144557;28;20032;-68
2023/04/01 09:56:45;;;;;;;;;;;;;;;10.37;93.98;99542.94;4120893;28;20033;-67
2023/04/01 09:59:02;;;;;;;;;;;;;;;10.36;93.52;99543.97;4128343;28;19965;-67
2023/04/01 10:01:47;;;;;;;;;;;;;;;10.35;93.74;99547.72;4121428;28;20042;-67
2023/04/01 10:04:02;;;;;;;;;;;;;;;10.34;93.87;99549.56;4132102;28;20024;-67
2023/04/01 10:06:10;;;;;;;;;;;;;;;10.34;93.69;99559.53;4120866;28;20037;-67
2023/04/01 10:08:34;;;;;;;;;;;;;;;10.33;93.74;99558.72;4127505;28;20404;-67
2023/04/01 10:10:47;;;;;;;;;;;;;;;10.33;94.04;99565.94;4127873;28;20040;-67
2023/04/01 10:12:57;;;;;;;;;;;;;;;10.33;93.95;99560.56;4144767;28;19941;-67
2023/04/01 10:15:18;;;;;;;;;;;;;;;10.33;93.90;99566.81;4144155;28;20032;-67
2023/04/01 10:17:40;;;;;;;;;;;;;;;10.33;93.77;99568.66;4135732;28;20044;-68
2023/04/01 10:19:53;;;;;;;;;;;;;;;10.34;93.77;99568.44;4134568;28;20013;-68
2023/04/01 10:22:13;;;;;;;;;;;;;;;10.34;94.22;99571.16;4143439;28;20897;-67
2023/04/01 10:24:34;;;;;;;;;;;;;;;10.36;94.17;99570.94;4116456;28;20378;-68
2023/04/01 10:26:53;;;;;;;;;;;;;;;10.36;94.27;99565.53;4106615;28;20022;-67
2023/04/01 10:29:36;;;;;;;;;;;;;;;10.36;94.00;99566.41;4124892;28;20020;-68
2023/04/01 10:31:57;;;;;;;;;;;;;;;10.38;94.31;99563.50;4130793;28;20018;-68
2023/04/01 10:34:21;;;;;;;;;;;;;;;10.38;93.97;99564.31;4124145;28;20020;-68
2023/04/01 10:36:41;;;;;;;;;;;;;;;10.38;93.86;99569.72;4120692;28;20845;-68
2023/04/01 10:38:50;;;;;;;;;;;;;;;10.40;94.10;99569.50;4129817;28;20024;-68
2023/04/01 10:40:54;;;;;;;;;;;;;;;10.41;94.05;99573.88;4138462;28;20471;-68
2023/04/01 10:43:29;;;;;;;;;;;;;;;10.40;93.90;99578.44;4123682;28;20372;-68
2023/04/01 10:45:57;;;;;;;;;;;;;;;10.40;93.71;99573.03;4146404;28;20029;-68
2023/04/01 10:48:11;;;;;;;;;;;;;;;10.41;93.67;99577.41;4138705;28;20375;-67
2023/04/01 10:50:26;;;;;;;;;;;;;;;10.41;93.44;99574.72;4138748;28;20016;-67
2023/04/01 10:52:47;;;;;;;;;;;;;;;10.43;93.31;99580.72;4121139;28;20016;-68
2023/04/01 10:55:26;;;;;;;;;;;;;;;10.44;93.17;99577.00;4124768;28;20021;-68
2023/04/01 10:57:54;;;;;;;;;;;;;;;10.46;93.35;99582.19;4123455;28;20017;-69
2023/04/01 11:00:37;;;;;;;;;;;;;;;10.39;93.03;99582.19;4124668;28;20484;-68
2023/04/01 11:03:29;;;;;;;;;;;;;;;10.35;92.79;99583.63;4119172;28;20034;-68
2023/04/01 11:06:14;;;;;;;;;;;;;;;10.34;92.59;99584.66;4121771;28;20045;-68
2023/04/01 11:08:36;;;;;;;;;;;;;;;10.34;92.94;99592.75;4124440;28;20029;-66
2023/04/01 11:10:59;;;;;;;;;;;;;;;10.35;92.85;99593.59;4142392;28;20102;-67
2023/04/01 11:13:16;;;;;;;;;;;;;;;10.34;92.37;99605.41;4129276;28;20012;-66